Time;durP1;ratioP1;P1;durP2;ratioP2;P2;SDS_P1;SDS_P2;PMS_P1;PMS_P2;Temp;Humidity;BMP_temperature;BMP_pressure;BME280_temperature;BME280_humidity;BME280_pressure;Samples;Min_cycle;Max_cycle;Signal;HPM_P1;HPM_P2
2023/05/16 00:00:57;;;;;;;8.68;1.70;;;;;;;13.06;67.65;101560.00;7391940;19;20511;-45
2023/05/16 00:03:24;;;;;;;10.18;1.90;;;;;;;13.05;67.96;101551.19;7392575;19;20011;-46
2023/05/16 00:05:52;;;;;;;6.50;1.70;;;;;;;12.94;69.15;101545.78;7390447;19;20018;-48
2023/05/16 00:08:19;;;;;;;8.88;1.88;;;;;;;12.84;69.39;101550.88;7389340;19;20033;-46
2023/05/16 00:10:46;;;;;;;7.05;1.83;;;;;;;12.91;69.42;101551.31;7391063;19;20420;-47
2023/05/16 00:13:13;;;;;;;8.18;1.90;;;;;;;12.91;69.52;101543.34;7390627;19;20441;-46
2023/05/16 00:15:42;;;;;;;10.07;1.85;;;;;;;12.86;69.81;101538.34;7391430;19;20015;-45
2023/05/16 00:18:13;;;;;;;9.13;2.00;;;;;;;12.83;70.31;101548.34;7388766;19;20023;-48
2023/05/16 00:20:41;;;;;;;7.97;1.98;;;;;;;12.95;70.41;101555.44;7389481;19;20015;-47
2023/05/16 00:23:08;;;;;;;10.38;2.50;;;;;;;12.92;70.16;101553.84;7391383;19;20092;-46
2023/05/16 00:25:35;;;;;;;9.13;1.80;;;;;;;12.86;70.13;101559.63;7387890;19;20014;-46
2023/05/16 00:28:03;;;;;;;9.25;2.22;;;;;;;12.84;70.30;101552.69;7387285;19;20025;-47
2023/05/16 00:30:30;;;;;;;10.07;2.30;;;;;;;12.78;70.15;101553.13;7387232;19;20480;-46
2023/05/16 00:32:57;;;;;;;8.80;1.95;;;;;;;12.85;69.65;101552.56;7389034;19;20018;-45
2023/05/16 00:35:25;;;;;;;9.48;2.33;;;;;;;12.85;69.65;101554.38;7387256;19;20018;-47
2023/05/16 00:37:53;;;;;;;8.90;1.90;;;;;;;12.87;69.23;101545.34;7390312;19;20022;-47
2023/05/16 00:40:20;;;;;;;9.55;2.58;;;;;;;12.78;69.32;101550.47;7390572;19;20019;-48
2023/05/16 00:42:47;;;;;;;7.82;1.92;;;;;;;12.70;69.53;101556.31;7389477;19;20034;-48
2023/05/16 00:45:15;;;;;;;11.32;2.35;;;;;;;12.79;69.38;101550.38;7390681;19;20093;-48
2023/05/16 00:47:42;;;;;;;11.48;2.38;;;;;;;12.79;69.13;101552.19;7388919;19;20093;-47
2023/05/16 00:50:09;;;;;;;11.25;2.00;;;;;;;12.72;69.49;101549.09;7388462;19;20029;-46
2023/05/16 00:52:36;;;;;;;11.30;2.30;;;;;;;12.82;69.17;101555.47;7390903;19;20010;-46
2023/05/16 00:55:05;;;;;;;15.25;2.63;;;;;;;12.80;68.89;101546.75;7389053;19;20359;-49
2023/05/16 00:57:32;;;;;;;11.90;2.38;;;;;;;12.77;69.12;101554.94;7389569;19;20034;-48
2023/05/16 00:59:59;;;;;;;10.48;2.10;;;;;;;12.84;68.44;101542.06;7388233;19;20026;-47
2023/05/16 01:02:28;;;;;;;10.40;2.28;;;;;;;12.81;68.12;101547.59;7389797;19;20022;-47
2023/05/16 01:04:55;;;;;;;11.30;2.35;;;;;;;12.69;68.19;101544.84;7385743;19;20022;-46
2023/05/16 01:07:22;;;;;;;11.00;2.53;;;;;;;12.74;68.06;101544.50;7390119;19;20021;-48
2023/05/16 01:09:50;;;;;;;12.57;2.97;;;;;;;12.75;67.97;101554.19;7388243;19;20379;-46
2023/05/16 01:12:37;;;;;;;13.18;2.30;;;;;;;12.81;67.77;101552.91;7388048;19;20134;-46
2023/05/16 01:15:08;;;;;;;10.25;2.17;;;;;;;12.80;67.55;101553.88;7389669;19;20025;-47
2023/05/16 01:17:42;;;;;;;13.82;2.75;;;;;;;12.78;67.22;101550.47;7387201;19;20468;-47
2023/05/16 01:20:28;;;;;;;10.45;2.40;;;;;;;12.77;67.25;101560.25;7388169;19;20043;-47
2023/05/16 01:23:14;;;;;;;11.98;2.67;;;;;;;12.67;67.27;101561.88;7389739;19;20021;-46
2023/05/16 01:26:10;;;;;;;11.75;2.33;;;;;;;12.72;66.70;101567.69;7388059;19;20090;-45
2023/05/16 01:28:38;;;;;;;12.68;2.53;;;;;;;12.67;66.53;101572.50;7387582;19;20026;-48
2023/05/16 01:31:05;;;;;;;11.77;2.50;;;;;;;12.67;66.14;101568.03;7388386;19;20018;-47
2023/05/16 01:33:33;;;;;;;13.50;2.53;;;;;;;12.73;66.04;101565.88;7388276;19;20081;-49
2023/05/16 01:36:20;;;;;;;10.27;2.22;;;;;;;12.82;65.95;101574.09;7387681;19;20099;-46
2023/05/16 01:39:06;;;;;;;11.20;2.50;;;;;;;12.76;66.15;101569.19;7388376;19;20444;-45
2023/05/16 01:41:42;;;;;;;9.05;2.28;;;;;;;12.76;66.15;101571.00;7391914;19;20017;-47
2023/05/16 01:44:17;;;;;;;11.27;2.30;;;;;;;12.66;66.19;101573.44;7394983;19;20027;-47
2023/05/16 01:46:47;;;;;;;13.68;2.53;;;;;;;12.68;66.44;101575.03;7394089;19;20010;-47
2023/05/16 01:49:22;;;;;;;13.98;2.20;;;;;;;12.76;66.08;101577.16;7395896;19;20507;-47
2023/05/16 01:52:03;;;;;;;17.42;2.60;;;;;;;12.79;65.52;101573.44;7395355;19;20049;-46
2023/05/16 01:54:32;;;;;;;11.32;2.80;;;;;;;12.67;65.72;101583.13;7393726;19;20341;-46
2023/05/16 01:57:00;;;;;;;10.68;2.25;;;;;;;12.69;65.79;101583.84;7395925;19;20018;-47
2023/05/16 01:59:28;;;;;;;12.43;2.28;;;;;;;12.72;65.58;101574.81;7395502;19;20526;-45
2023/05/16 02:01:58;;;;;;;13.20;2.63;;;;;;;12.69;65.63;101576.72;7395116;19;20021;-46
2023/05/16 02:04:25;;;;;;;12.55;2.80;;;;;;;12.67;65.61;101577.81;7396093;19;20015;-47
2023/05/16 02:06:52;;;;;;;13.10;3.17;;;;;;;12.56;65.78;101586.53;7395911;19;20546;-46
2023/05/16 02:09:20;;;;;;;13.52;2.55;;;;;;;12.60;65.64;101589.81;7394280;19;20018;-45
2023/05/16 02:11:47;;;;;;;13.38;3.17;;;;;;;12.60;65.73;101584.50;7395156;19;20018;-45
2023/05/16 02:14:15;;;;;;;14.75;3.05;;;;;;;12.60;65.54;101589.81;7393627;19;20018;-49
2023/05/16 02:16:42;;;;;;;13.48;2.92;;;;;;;12.60;65.65;101585.34;7395305;19;20017;-47
2023/05/16 02:19:09;;;;;;;15.77;3.05;;;;;;;12.54;65.53;101584.91;7393266;19;20021;-44
2023/05/16 02:21:37;;;;;;;13.10;2.85;;;;;;;12.57;65.24;101592.69;7395533;19;20043;-47
2023/05/16 02:24:04;;;;;;;16.98;2.88;;;;;;;12.58;64.98;101599.69;7394014;19;20035;-45
2023/05/16 02:26:31;;;;;;;19.20;3.72;;;;;;;12.56;65.03;101593.63;7394235;19;20495;-45
2023/05/16 02:28:58;;;;;;;13.48;2.90;;;;;;;12.48;64.66;101596.81;7390821;19;20018;-45
2023/05/16 02:31:30;;;;;;;15.55;2.58;;;;;;;12.57;64.54;101604.16;7393038;19;20024;-47
2023/05/16 02:33:57;;;;;;;17.70;2.83;;;;;;;12.52;64.70;101597.47;7392760;19;20491;-45
2023/05/16 02:36:25;;;;;;;16.83;3.00;;;;;;;12.44;64.72;101598.84;7392843;19;20035;-44
2023/05/16 02:38:52;;;;;;;15.13;3.22;;;;;;;12.41;64.19;101609.66;7391225;19;20583;-47
2023/05/16 02:41:21;;;;;;;19.33;3.35;;;;;;;12.34;64.21;101611.03;7391004;19;20023;-45
2023/05/16 02:43:48;;;;;;;14.55;2.95;;;;;;;12.42;64.09;101621.13;7393203;19;20017;-44
2023/05/16 02:46:27;;;;;;;21.08;3.65;;;;;;;12.39;63.48;101613.38;7394198;19;20022;-45
2023/05/16 02:48:55;;;;;;;18.70;3.20;;;;;;;12.31;63.70;101610.38;7390280;19;20074;-45
2023/05/16 02:51:25;;;;;;;19.33;3.33;;;;;;;12.20;63.66;101617.25;7395053;19;20023;-45
2023/05/16 02:53:53;;;;;;;15.30;3.05;;;;;;;12.23;63.68;101624.16;7392061;19;20035;-45
2023/05/16 02:56:20;;;;;;;17.40;3.03;;;;;;;12.20;63.53;101635.00;7392129;19;20051;-44
2023/05/16 02:58:48;;;;;;;15.30;2.75;;;;;;;12.19;63.14;101618.22;7391507;19;20029;-45
2023/05/16 03:01:16;;;;;;;17.42;3.47;;;;;;;12.04;63.57;101632.50;7394535;19;20043;-45
2023/05/16 03:03:44;;;;;;;16.95;4.00;;;;;;;12.06;63.35;101632.41;7394502;19;20014;-46
2023/05/16 03:06:11;;;;;;;13.77;3.03;;;;;;;12.09;63.12;101632.19;7393698;19;20026;-46
2023/05/16 03:08:38;;;;;;;19.10;3.65;;;;;;;12.01;63.01;101632.69;7391092;19;20501;-44
2023/05/16 03:11:06;;;;;;;17.13;2.95;;;;;;;11.93;62.99;101643.81;7392892;19;20023;-47
2023/05/16 03:13:33;;;;;;;14.98;3.05;;;;;;;11.81;63.25;101641.94;7388827;19;20015;-46
2023/05/16 03:16:00;;;;;;;16.60;3.20;;;;;;;11.85;63.36;101648.78;7389371;19;20023;-46
2023/05/16 03:18:28;;;;;;;14.35;2.97;;;;;;;11.81;62.97;101652.56;7390165;19;20025;-48
2023/05/16 03:20:56;;;;;;;14.40;3.03;;;;;;;11.84;63.04;101652.38;7391946;19;20018;-45
2023/05/16 03:23:23;;;;;;;15.75;2.85;;;;;;;11.81;62.95;101652.56;7392988;19;20011;-46
2023/05/16 03:25:50;;;;;;;15.45;3.28;;;;;;;11.77;62.89;101652.84;7391677;19;20434;-46
2023/05/16 03:28:17;;;;;;;14.48;2.90;;;;;;;11.67;63.05;101656.06;7389083;19;20510;-45
2023/05/16 03:30:45;;;;;;;15.95;3.05;;;;;;;11.62;63.38;101659.97;7392679;19;20038;-46
2023/05/16 03:33:12;;;;;;;15.90;2.63;;;;;;;11.57;63.00;101667.41;7390238;19;20085;-45
2023/05/16 03:35:40;;;;;;;12.20;2.60;;;;;;;11.57;62.83;101664.75;7392651;19;20047;-45
2023/05/16 03:38:07;;;;;;;15.02;3.40;;;;;;;11.68;62.36;101668.41;7393053;19;20067;-45
2023/05/16 03:40:34;;;;;;;13.98;3.30;;;;;;;11.59;62.36;101661.03;7392796;19;20350;-45
2023/05/16 03:43:01;;;;;;;16.80;2.70;;;;;;;11.64;62.36;101668.72;7392854;19;20022;-46
2023/05/16 03:45:30;;;;;;;15.32;2.63;;;;;;;11.73;61.95;101668.13;7392316;19;20089;-46
2023/05/16 03:47:57;;;;;;;12.68;3.10;;;;;;;11.77;61.83;101669.63;7392121;19;20014;-46
2023/05/16 03:50:24;;;;;;;16.55;2.55;;;;;;;11.74;61.54;101682.22;7391882;19;20045;-46
2023/05/16 03:52:52;;;;;;;14.20;2.70;;;;;;;11.73;61.38;101672.56;7393136;19;20019;-45
2023/05/16 03:55:20;;;;;;;11.45;2.85;;;;;;;11.69;61.36;101671.91;7389942;19;20047;-45
2023/05/16 03:57:48;;;;;;;14.88;2.92;;;;;;;11.60;61.29;101675.13;7391975;19;20022;-45
2023/05/16 04:00:16;;;;;;;14.25;3.10;;;;;;;11.54;61.49;101681.69;7391350;19;20015;-45
2023/05/16 04:02:43;;;;;;;12.88;2.72;;;;;;;11.54;61.12;101681.69;7389902;19;20043;-46
2023/05/16 04:05:12;;;;;;;13.05;2.75;;;;;;;11.60;60.96;101676.00;7389469;19;20389;-45
2023/05/16 04:07:40;;;;;;;16.42;2.53;;;;;;;11.62;60.95;101684.72;7389069;19;20479;-46
2023/05/16 04:10:08;;;;;;;13.85;2.55;;;;;;;11.57;61.26;101684.16;7391307;19;20022;-46
2023/05/16 04:12:36;;;;;;;12.50;2.38;;;;;;;11.58;60.95;101682.34;7395230;19;20019;-47
2023/05/16 04:15:05;;;;;;;17.50;2.55;;;;;;;11.59;60.86;101698.16;7388192;19;20041;-45
2023/05/16 04:17:33;;;;;;;16.58;2.60;;;;;;;11.56;61.08;101694.84;7389342;19;20019;-46
2023/05/16 04:20:03;;;;;;;13.60;3.17;;;;;;;11.42;61.25;101699.22;7389327;19;20014;-45
2023/05/16 04:22:30;;;;;;;11.80;2.30;;;;;;;11.45;61.08;101709.66;7390239;19;20018;-44
2023/05/16 04:24:57;;;;;;;10.13;2.30;;;;;;;11.55;61.08;101701.09;7390435;19;20027;-45
2023/05/16 04:27:25;;;;;;;16.90;3.10;;;;;;;11.47;61.22;101697.13;7390440;19;20467;-45
2023/05/16 04:29:53;;;;;;;18.35;3.10;;;;;;;11.52;60.97;101706.59;7388954;19;20010;-44
2023/05/16 04:32:20;;;;;;;13.68;2.90;;;;;;;11.55;60.96;101717.03;7390871;19;20514;-44
2023/05/16 04:34:48;;;;;;;11.15;2.60;;;;;;;11.54;61.04;101705.56;7389581;19;20137;-45
2023/05/16 04:37:16;;;;;;;14.57;3.10;;;;;;;11.54;60.94;101708.22;7388965;19;20020;-45
2023/05/16 04:39:43;;;;;;;16.88;2.83;;;;;;;11.52;60.90;101715.41;7388741;19;20015;-45
2023/05/16 04:42:10;;;;;;;11.38;2.67;;;;;;;11.36;61.21;101707.56;7389230;19;20023;-45
2023/05/16 04:44:37;;;;;;;13.73;2.88;;;;;;;11.41;61.46;101715.25;7390309;19;20018;-44
2023/05/16 04:47:07;;;;;;;16.67;3.10;;;;;;;11.47;60.77;101723.66;7390841;19;20033;-47
2023/05/16 04:49:35;;;;;;;15.55;2.95;;;;;;;11.46;60.93;101721.13;7389904;19;20026;-45
2023/05/16 04:52:02;;;;;;;15.07;3.13;;;;;;;11.50;61.01;101719.97;7388795;19;20014;-45
2023/05/16 04:54:29;;;;;;;13.10;2.50;;;;;;;11.47;60.71;101725.47;7389111;19;20090;-45
2023/05/16 04:56:56;;;;;;;16.23;2.75;;;;;;;11.46;61.04;101716.66;7388213;19;20014;-44
2023/05/16 04:59:23;;;;;;;14.40;2.63;;;;;;;11.44;60.92;101723.84;7389666;19;20029;-46
2023/05/16 05:01:51;;;;;;;13.90;2.90;;;;;;;11.42;61.21;101725.75;7389015;19;20051;-44
2023/05/16 05:04:18;;;;;;;17.80;2.88;;;;;;;11.45;60.94;101732.69;7390074;19;20081;-44
2023/05/16 05:06:45;;;;;;;14.82;2.90;;;;;;;11.50;61.24;101727.94;7390281;19;20018;-45
2023/05/16 05:09:12;;;;;;;16.40;3.55;;;;;;;11.52;60.68;101739.28;7388020;19;20363;-46
2023/05/16 05:11:39;;;;;;;19.40;3.85;;;;;;;11.47;60.82;101736.06;7388372;19;20025;-45
2023/05/16 05:14:06;;;;;;;14.77;3.30;;;;;;;11.49;60.99;101742.16;7387603;19;20021;-44
2023/05/16 05:16:33;;;;;;;15.23;3.15;;;;;;;11.56;60.79;101738.19;7395046;19;20716;-45
2023/05/16 05:19:01;;;;;;;13.77;2.95;;;;;;;11.59;60.58;101742.41;7392407;19;20015;-45
2023/05/16 05:21:29;;;;;;;14.60;2.80;;;;;;;11.51;60.65;101747.34;7395991;19;20037;-47
2023/05/16 05:23:56;;;;;;;18.45;3.80;;;;;;;11.42;61.01;101746.13;7397088;19;20543;-47
2023/05/16 05:26:25;;;;;;;17.17;3.38;;;;;;;11.51;60.88;101742.88;7394928;19;20026;-46
2023/05/16 05:28:52;;;;;;;13.73;3.25;;;;;;;11.53;60.41;101756.94;7392675;19;20021;-47
2023/05/16 05:31:33;;;;;;;16.95;3.10;;;;;;;11.59;60.32;101750.38;7397594;19;20014;-45
2023/05/16 05:34:02;;;;;;;16.38;3.03;;;;;;;11.52;60.43;101752.53;7394584;19;20038;-45
2023/05/16 05:36:30;;;;;;;17.38;2.80;;;;;;;11.56;60.54;101748.78;7394198;19;20022;-44
2023/05/16 05:38:57;;;;;;;16.13;3.50;;;;;;;11.47;60.51;101739.56;7393581;19;20055;-44
2023/05/16 05:41:25;;;;;;;18.55;3.50;;;;;;;11.46;60.62;101751.13;7396573;19;20018;-45
2023/05/16 05:43:52;;;;;;;16.10;3.38;;;;;;;11.55;60.44;101751.50;7396735;19;20018;-45
2023/05/16 05:46:20;;;;;;;16.92;3.38;;;;;;;11.45;60.69;101746.78;7393907;19;20021;-44
2023/05/16 05:48:48;;;;;;;15.20;3.42;;;;;;;11.64;60.33;101757.13;7393953;19;20039;-45
2023/05/16 05:51:16;;;;;;;16.67;3.90;;;;;;;11.67;60.11;101761.34;7396438;19;20022;-46
2023/05/16 05:53:43;;;;;;;14.40;3.30;;;;;;;11.62;60.27;101753.69;7394121;19;20484;-45
2023/05/16 05:56:11;;;;;;;15.60;3.00;;;;;;;11.66;60.07;101755.19;7393341;19;20014;-47
2023/05/16 05:58:38;;;;;;;17.38;3.67;;;;;;;11.53;60.78;101756.94;7390102;19;20015;-51
2023/05/16 06:01:05;;;;;;;13.35;2.83;;;;;;;11.58;60.59;101757.47;7396354;19;20027;-46
2023/05/16 06:03:33;;;;;;;17.83;3.03;;;;;;;11.64;59.94;101756.28;7394609;19;20011;-49
2023/05/16 06:06:00;;;;;;;16.70;3.42;;;;;;;11.73;60.25;101768.09;7395357;19;20042;-50
2023/05/16 06:08:27;;;;;;;20.20;3.20;;;;;;;11.74;60.25;101765.34;7394633;19;20040;-47
2023/05/16 06:10:54;;;;;;;16.60;2.83;;;;;;;11.76;60.21;101766.13;7395823;19;20135;-48
2023/05/16 06:13:21;;;;;;;14.27;3.08;;;;;;;11.89;59.68;101772.38;7394176;19;20097;-45
2023/05/16 06:15:50;;;;;;;13.32;3.05;;;;;;;11.93;59.77;101778.34;7392272;19;20029;-46
2023/05/16 06:18:17;;;;;;;18.33;3.22;;;;;;;11.93;60.12;101778.34;7395230;19;20025;-48
2023/05/16 06:20:44;;;;;;;17.60;2.95;;;;;;;11.98;59.66;101776.28;7393158;19;20014;-45
2023/05/16 06:23:12;;;;;;;14.00;2.88;;;;;;;12.05;59.38;101776.72;7393642;19;20039;-45
2023/05/16 06:25:39;;;;;;;11.82;2.90;;;;;;;12.00;59.50;101787.63;7394542;19;20019;-49
2023/05/16 06:28:06;;;;;;;12.52;2.50;;;;;;;12.03;59.39;101775.97;7393318;19;20017;-45
2023/05/16 06:30:33;;;;;;;12.93;2.72;;;;;;;12.15;58.77;101775.19;7394857;19;20039;-46
2023/05/16 06:33:00;;;;;;;12.57;2.63;;;;;;;12.17;58.18;101783.91;7393574;19;20329;-46
2023/05/16 06:35:28;;;;;;;14.00;2.67;;;;;;;12.31;57.70;101780.38;7393192;19;20042;-47
2023/05/16 06:37:55;;;;;;;10.77;2.28;;;;;;;12.25;57.32;101789.59;7394993;19;20496;-47
2023/05/16 06:40:22;;;;;;;11.23;2.55;;;;;;;12.45;56.79;101793.63;7394640;19;20095;-47
2023/05/16 06:42:49;;;;;;;12.82;2.28;;;;;;;12.49;56.47;101792.47;7394129;19;20043;-49
2023/05/16 06:45:16;;;;;;;10.18;2.13;;;;;;;12.57;56.17;101791.97;7394496;19;20043;-47
2023/05/16 06:47:43;;;;;;;12.63;2.40;;;;;;;12.59;56.56;101793.56;7393403;19;20025;-46
2023/05/16 06:50:10;;;;;;;16.85;2.58;;;;;;;12.67;56.10;101806.34;7393927;19;20042;-49
2023/05/16 06:52:38;;;;;;;11.30;2.00;;;;;;;12.64;56.28;101809.22;7391627;19;20384;-46
2023/05/16 06:55:05;;;;;;;10.15;2.00;;;;;;;12.62;56.23;101801.31;7392492;19;20015;-46
2023/05/16 06:57:32;;;;;;;16.17;2.83;;;;;;;12.62;56.52;101808.44;7394523;19;20023;-45
2023/05/16 06:59:59;;;;;;;12.88;2.55;;;;;;;12.65;56.39;101809.09;7393346;19;20025;-47
2023/05/16 07:02:26;;;;;;;10.45;2.83;;;;;;;12.70;56.20;101808.78;7393888;19;20046;-46
2023/05/16 07:04:54;;;;;;;15.75;2.95;;;;;;;12.68;55.98;101803.59;7394172;19;20029;-48
2023/05/16 07:07:21;;;;;;;12.65;2.60;;;;;;;12.58;56.27;101814.91;7394447;19;20035;-44
2023/05/16 07:09:48;;;;;;;15.27;2.60;;;;;;;12.47;55.86;101814.75;7391447;19;20039;-47
2023/05/16 07:12:15;;;;;;;11.38;2.03;;;;;;;12.39;55.09;101794.00;7393362;19;20025;-47
2023/05/16 07:14:42;;;;;;;11.50;2.05;;;;;;;12.54;55.11;101805.44;7391957;19;20066;-48
2023/05/16 07:17:10;;;;;;;10.20;2.00;;;;;;;12.82;54.45;101808.00;7393111;19;20498;-45
2023/05/16 07:19:37;;;;;;;11.10;2.08;;;;;;;12.83;54.54;101808.84;7393095;19;20052;-47
2023/05/16 07:22:04;;;;;;;9.85;2.30;;;;;;;13.05;53.68;101806.47;7392017;19;20014;-47
2023/05/16 07:24:31;;;;;;;11.52;2.00;;;;;;;13.25;52.11;101815.78;7393273;19;20038;-47
2023/05/16 07:26:59;;;;;;;10.93;1.90;;;;;;;13.12;52.17;101823.69;7392874;19;20011;-49
2023/05/16 07:29:26;;;;;;;22.45;2.20;;;;;;;13.11;52.09;101823.81;7390983;19;20077;-46
2023/05/16 07:31:53;;;;;;;8.35;2.10;;;;;;;13.09;52.18;101821.25;7393185;19;20379;-48
2023/05/16 07:34:20;;;;;;;11.80;2.25;;;;;;;13.03;52.62;101819.00;7392528;19;20573;-46
2023/05/16 07:36:47;;;;;;;9.80;2.03;;;;;;;13.05;52.73;101830.41;7393254;19;20018;-48
2023/05/16 07:39:15;;;;;;;13.30;2.40;;;;;;;12.95;53.71;101831.97;7391916;19;20048;-50
2023/05/16 07:41:42;;;;;;;10.63;1.80;;;;;;;12.85;54.46;101839.69;7392348;19;20014;-49
2023/05/16 07:44:09;;;;;;;11.82;2.28;;;;;;;12.57;55.34;101847.75;7390921;19;20021;-47
2023/05/16 07:46:36;;;;;;;11.43;1.90;;;;;;;12.43;57.20;101854.78;7392742;19;20023;-46
2023/05/16 07:49:04;;;;;;;9.63;1.70;;;;;;;12.16;57.81;101852.09;7391726;19;20015;-49
2023/05/16 07:51:31;;;;;;;10.18;1.70;;;;;;;12.22;57.95;101845.56;7393219;19;20483;-48
2023/05/16 07:53:58;;;;;;;8.80;1.80;;;;;;;12.39;58.17;101849.78;7392301;19;20022;-49
2023/05/16 07:56:25;;;;;;;7.80;1.75;;;;;;;12.28;58.96;101852.25;7391568;19;20475;-45
2023/05/16 07:58:53;;;;;;;11.32;2.15;;;;;;;12.13;59.84;101849.66;7391763;19;20022;-47
2023/05/16 08:01:20;;;;;;;12.90;2.47;;;;;;;12.07;61.07;101851.81;7392442;19;20014;-49
2023/05/16 08:03:47;;;;;;;10.85;1.92;;;;;;;12.17;61.02;101843.19;7390411;19;20479;-48
2023/05/16 08:06:14;;;;;;;9.15;1.85;;;;;;;12.31;61.29;101844.09;7390205;19;20022;-47
2023/05/16 08:08:42;;;;;;;9.70;1.92;;;;;;;12.46;61.22;101851.09;7391522;19;20519;-45
2023/05/16 08:11:10;;;;;;;11.73;2.22;;;;;;;12.57;60.32;101840.63;7391943;19;20467;-49
2023/05/16 08:13:37;;;;;;;9.57;1.80;;;;;;;12.68;59.53;101843.44;7390541;19;20022;-47
2023/05/16 08:16:04;;;;;;;11.48;2.03;;;;;;;13.04;58.68;101843.78;7382150;19;20045;-49
2023/05/16 08:18:31;;;;;;;11.98;2.15;;;;;;;13.12;57.74;101838.81;7389409;19;20031;-48
2023/05/16 08:20:59;;;;;;;9.80;1.85;;;;;;;12.90;57.55;101840.25;7392220;19;20019;-46
2023/05/16 08:23:26;;;;;;;10.18;1.90;;;;;;;12.69;58.23;101847.81;7390180;19;20014;-46
2023/05/16 08:25:53;;;;;;;8.95;1.83;;;;;;;12.60;58.18;101839.59;7390920;19;20035;-48
2023/05/16 08:28:20;;;;;;;7.95;1.90;;;;;;;12.58;56.30;101847.66;7389764;19;20479;-46
2023/05/16 08:30:47;;;;;;;8.93;2.33;;;;;;;12.58;55.84;101850.31;7391417;19;20030;-46
2023/05/16 08:33:15;;;;;;;7.80;1.77;;;;;;;12.86;54.71;101841.41;7390753;19;20030;-48
2023/05/16 08:35:43;;;;;;;8.75;1.70;;;;;;;13.20;52.94;101844.44;7389736;19;20022;-47
2023/05/16 08:38:10;;;;;;;9.68;1.65;;;;;;;13.47;52.10;101844.44;7391497;19;20504;-46
2023/05/16 08:40:39;;;;;;;8.65;1.85;;;;;;;13.49;51.96;101841.69;7390553;19;20039;-48
2023/05/16 08:43:06;;;;;;;10.02;1.77;;;;;;;13.27;51.56;101848.44;7388356;19;20742;-47
2023/05/16 08:45:33;;;;;;;10.10;1.80;;;;;;;13.19;50.24;101842.75;7388703;19;20018;-48
2023/05/16 08:48:02;;;;;;;7.07;1.35;;;;;;;13.11;49.86;101840.63;7391135;19;20010;-47
2023/05/16 08:50:30;;;;;;;7.57;2.03;;;;;;;13.18;50.51;101854.38;7388225;19;20047;-46
2023/05/16 08:53:05;;;;;;;8.93;2.08;;;;;;;13.16;50.13;101835.84;7389172;19;20011;-45
2023/05/16 08:55:34;;;;;;;7.80;1.63;;;;;;;13.21;49.47;101840.88;7388432;19;20033;-46
2023/05/16 08:58:02;;;;;;;9.00;1.73;;;;;;;13.25;49.99;101845.06;7390741;19;20397;-45
2023/05/16 09:00:30;;;;;;;8.48;1.70;;;;;;;13.46;49.50;101837.41;7387896;19;20018;-45
2023/05/16 09:02:57;;;;;;;10.23;1.95;;;;;;;13.62;48.84;101840.75;7388786;19;20023;-50
2023/05/16 09:05:26;;;;;;;9.75;1.60;;;;;;;13.70;47.76;101840.19;7388607;19;20025;-46
2023/05/16 09:07:54;;;;;;;7.43;1.55;;;;;;;13.90;46.85;101837.00;7389781;19;20010;-46
2023/05/16 09:10:21;;;;;;;9.15;1.40;;;;;;;14.05;45.59;101824.41;7389458;19;20026;-48
2023/05/16 09:12:48;;;;;;;6.07;1.42;;;;;;;13.98;44.63;101827.63;7388737;19;20027;-48
2023/05/16 09:15:17;;;;;;;11.10;2.03;;;;;;;13.83;44.26;101833.06;7389010;19;20047;-46
2023/05/16 09:17:45;;;;;;;7.93;1.75;;;;;;;13.69;44.51;101845.63;7389940;19;20018;-50
2023/05/16 09:20:14;;;;;;;7.88;1.98;;;;;;;13.69;44.77;101840.28;7389446;19;20042;-49
2023/05/16 09:22:53;;;;;;;11.10;1.70;;;;;;;14.07;44.16;101835.78;7387458;19;20032;-49
2023/05/16 09:25:21;;;;;;;8.50;1.70;;;;;;;14.31;43.41;101835.88;7389835;19;20377;-47
2023/05/16 09:28:00;;;;;;;13.82;2.50;;;;;;;14.40;43.23;101842.34;7388985;19;20011;-48
2023/05/16 09:30:30;;;;;;;9.13;1.80;;;;;;;14.31;43.60;101830.53;7389474;19;20048;-46
2023/05/16 09:32:58;;;;;;;10.27;2.00;;;;;;;14.16;44.66;101836.97;7388609;19;20015;-49
2023/05/16 09:35:26;;;;;;;8.65;2.20;;;;;;;14.08;45.09;101844.63;7388232;19;20039;-47
2023/05/16 09:38:15;;;;;;;12.13;1.98;;;;;;;14.09;45.42;101833.88;7389675;19;20082;-46
2023/05/16 09:40:43;;;;;;;12.03;2.13;;;;;;;14.12;45.67;101828.34;7388436;19;20028;-48
2023/05/16 09:43:15;;;;;;;10.80;2.25;;;;;;;14.17;45.97;101835.16;7388332;19;20022;-45
2023/05/16 09:45:47;;;;;;;12.75;2.40;;;;;;;14.32;46.08;101836.72;7388404;19;20014;-49
2023/05/16 09:48:15;;;;;;;6.97;1.90;;;;;;;14.45;45.43;101834.84;7389418;19;20031;-48
2023/05/16 09:50:51;;;;;;;8.00;1.73;;;;;;;14.56;44.51;101824.28;7388500;19;20074;-47
2023/05/16 09:53:29;;;;;;;9.10;1.70;;;;;;;14.31;44.54;101832.34;7388292;19;20373;-48
2023/05/16 09:56:06;;;;;;;8.45;1.80;;;;;;;14.03;45.27;101830.78;7386556;19;20018;-46
2023/05/16 09:58:35;;;;;;;9.93;1.85;;;;;;;13.97;45.99;101837.41;7388726;19;20018;-45
2023/05/16 10:01:04;;;;;;;7.93;1.60;;;;;;;13.81;46.14;101842.97;7387269;19;20043;-54
2023/05/16 10:03:37;;;;;;;7.85;1.45;;;;;;;13.75;44.53;101859.38;7390746;19;20026;-45
2023/05/16 10:06:05;;;;;;;6.13;1.23;;;;;;;13.93;45.29;101864.34;7395730;19;20082;-48
2023/05/16 10:08:35;;;;;;;7.28;2.03;;;;;;;14.19;45.79;101857.19;7393582;19;20018;-46
2023/05/16 10:11:06;;;;;;;9.50;1.40;;;;;;;14.44;45.34;101881.13;7393924;19;20022;-48
2023/05/16 10:13:35;;;;;;;8.32;1.50;;;;;;;14.38;45.27;101866.44;7394197;19;20499;-50
2023/05/16 10:16:08;;;;;;;15.48;2.10;;;;;;;14.09;47.18;101873.84;7394671;19;20026;-46
2023/05/16 10:18:37;;;;;;;7.93;1.40;;;;;;;13.83;50.42;101896.97;7395098;19;20010;-48
2023/05/16 10:21:10;;;;;;;5.60;1.10;;;;;;;13.46;50.66;101901.28;7395903;19;20046;-47
2023/05/16 10:23:41;;;;;;;4.43;0.85;;;;;;;13.06;51.01;101900.41;7393416;19;20123;-51
2023/05/16 10:26:10;;;;;;;3.22;0.90;;;;;;;12.86;51.12;101897.25;7395133;19;20019;-47
2023/05/16 10:28:40;;;;;;;4.85;1.20;;;;;;;12.86;51.77;101896.38;7392496;19;20034;-46
2023/05/16 10:31:09;;;;;;;4.18;1.13;;;;;;;12.91;51.95;101889.81;7395561;19;20029;-46
2023/05/16 10:33:37;;;;;;;6.15;1.63;;;;;;;13.13;51.58;101888.41;7392444;19;20051;-49
2023/05/16 10:36:06;;;;;;;7.57;1.75;;;;;;;13.30;51.71;101884.63;7393772;19;20026;-48
2023/05/16 10:38:33;;;;;;;6.55;1.67;;;;;;;13.43;50.75;101890.81;7393677;19;20046;-47
2023/05/16 10:41:01;;;;;;;6.97;1.70;;;;;;;13.99;50.08;101891.41;7394986;19;20122;-45
2023/05/16 10:43:29;;;;;;;8.18;1.77;;;;;;;14.32;49.15;101890.84;7391296;19;20010;-45
2023/05/16 10:46:06;;;;;;;8.10;1.73;;;;;;;14.29;49.16;101893.72;7394644;19;20394;-51
2023/05/16 10:48:35;;;;;;;8.02;1.52;;;;;;;13.89;49.52;101885.88;7393917;19;20036;-46
2023/05/16 10:51:23;;;;;;;11.32;1.67;;;;;;;13.61;50.29;101892.25;7393431;19;20022;-48
2023/05/16 10:53:51;;;;;;;7.95;1.95;;;;;;;13.57;51.24;101885.44;7391339;19;20499;-46
2023/05/16 10:56:25;;;;;;;5.72;1.10;;;;;;;13.57;50.48;101900.53;7393244;19;20112;-47
2023/05/16 10:58:54;;;;;;;4.15;1.10;;;;;;;13.55;47.96;101902.47;7391571;19;20010;-46
2023/05/16 11:01:34;;;;;;;6.45;1.48;;;;;;;13.62;46.16;101907.28;7394283;19;20084;-48
2023/05/16 11:04:10;;;;;;;9.55;1.30;;;;;;;13.52;46.76;101908.00;7394348;19;20516;-48
2023/05/16 11:06:40;;;;;;;5.00;1.25;;;;;;;13.40;47.10;101907.03;7393637;19;20107;-49
2023/05/16 11:09:25;;;;;;;7.00;1.30;;;;;;;13.38;45.99;101903.59;7392889;19;20031;-49
2023/05/16 11:12:02;;;;;;;5.78;1.35;;;;;;;13.33;46.72;101906.56;7393935;19;20031;-48
2023/05/16 11:14:32;;;;;;;3.03;0.80;;;;;;;13.22;46.69;101902.88;7393066;19;20038;-45
2023/05/16 11:17:34;;;;;;;4.03;1.23;;;;;;;13.17;46.96;101898.72;7391349;19;20025;-45
2023/05/16 11:20:04;;;;;;;5.28;1.10;;;;;;;13.45;47.02;101896.06;7390320;19;20018;-47
2023/05/16 11:22:33;;;;;;;5.57;1.35;;;;;;;13.93;46.29;101888.31;7392814;19;20010;-47
2023/05/16 11:25:04;;;;;;;5.70;1.20;;;;;;;14.38;45.39;101884.22;7391945;19;20491;-45
2023/05/16 11:27:45;;;;;;;7.80;1.40;;;;;;;14.42;45.17;101885.69;7393618;19;20094;-46